Serenity — KA711 — position and weather

sailwx.info

Track history (hours):
 
Tides and Currents Weather Stations Pressure Air Temp Water Temp Dewpoint Dewpoint Depression Visibility Wind Speed Wind Dir Waves Ship Positions

Serenity

Last reported at 2017-Dec-29 01:24 UTC. Time now 2018-Jan-19 15:38 UTC.
Position N 26°53' W 080°04'.
Warning: this ship's position is 21 days out of date.

Length 19 m; draft 1.2 m.

Type: Pleasure craft. MMSI: 338210445.

Date/timePositionNaut miles runAvg speedWind from/ knotsBaromVisibWave heightAir tempDewpointWater temp
2017-Dec-29 01:24N 26°53' W 080°04'3 6.8
2017-Dec-29 01:00N 26°50' W 080°04'510.1
2017-Dec-29 00:31N 26°45' W 080°03'2 0.5
2017-Dec-28 20:05N 26°43' W 080°03'1 7.3
2017-Dec-28 20:00N 26°43' W 080°03'3 6.5
2017-Dec-28 19:29N 26°47' W 080°03'8 7.9
2017-Dec-28 18:29N 26°54' W 080°05'  
2017-Dec-22 21:09N 26°55' W 080°05'1 7.4
2017-Dec-22 21:00N 26°56' W 080°05'1 1.5
2017-Dec-22 20:30N 26°57' W 080°05'2 0.1
2017-Dec-21 09:01N 26°55' W 080°05'0 1.9
2017-Dec-21 09:00N 26°55' W 080°05'0 0.0
2017-Dec-21 08:29N 26°55' W 080°05'0 0.0
2017-Dec-21 07:58N 26°55' W 080°05'0 0.0
2017-Dec-21 07:28N 26°55' W 080°05'0 0.0
2017-Dec-21 06:58N 26°55' W 080°05'0 0.0
2017-Dec-21 06:28N 26°55' W 080°05'0 0.0
2017-Dec-21 05:58N 26°55' W 080°05'0 0.0
2017-Dec-21 05:28N 26°55' W 080°05'0 0.0
2017-Dec-21 04:58N 26°55' W 080°05'0 0.0
2017-Dec-21 04:28N 26°55' W 080°05'0 0.0
2017-Dec-21 04:00N 26°55' W 080°05'0 0.0
2017-Dec-21 03:28N 26°55' W 080°05'0 0.0
2017-Dec-21 02:58N 26°55' W 080°05'0 0.9
2017-Dec-21 02:30N 26°55' W 080°05'1 2.2
2017-Dec-21 01:58N 26°56' W 080°05'0 0.0
2017-Dec-21 01:28N 26°56' W 080°05'0 0.0
2017-Dec-21 00:58N 26°56' W 080°05'0 0.0
2017-Dec-21 00:28N 26°56' W 080°05'0 0.1
2017-Dec-21 00:00N 26°56' W 080°05'0 0.0
2017-Dec-20 23:30N 26°56' W 080°05'0 0.0
2017-Dec-20 22:59N 26°56' W 080°05'1 1.5
2017-Dec-20 22:30N 26°57' W 080°05'  
Track history (hours):
 
Tides and Currents Weather Stations Pressure Air Temp Water Temp Dewpoint Dewpoint Depression Visibility Wind Speed Wind Dir Waves Ship Positions

Serenity

Last reported at 2017-Dec-29 01:24 UTC. Time now 2018-Jan-19 15:38 UTC.
Position N 26°53' W 080°04'.
Warning: this ship's position is 21 days out of date.

Length 19 m; draft 1.2 m.

Type: Pleasure craft. MMSI: 338210445.

Date/timePositionNaut miles runAvg speedWind from/ knotsBaromVisibWave heightAir tempDewpointWater temp
2017-Dec-29 01:24N 26°53' W 080°04'3 6.8
2017-Dec-29 01:00N 26°50' W 080°04'510.1
2017-Dec-29 00:31N 26°45' W 080°03'2 0.5
2017-Dec-28 20:05N 26°43' W 080°03'1 7.3
2017-Dec-28 20:00N 26°43' W 080°03'3 6.5
2017-Dec-28 19:29N 26°47' W 080°03'8 7.9
2017-Dec-28 18:29N 26°54' W 080°05'  
2017-Dec-22 21:09N 26°55' W 080°05'1 7.4
2017-Dec-22 21:00N 26°56' W 080°05'1 1.5
2017-Dec-22 20:30N 26°57' W 080°05'2 0.1
2017-Dec-21 09:01N 26°55' W 080°05'0 1.9
2017-Dec-21 09:00N 26°55' W 080°05'0 0.0
2017-Dec-21 08:29N 26°55' W 080°05'0 0.0
2017-Dec-21 07:58N 26°55' W 080°05'0 0.0
2017-Dec-21 07:28N 26°55' W 080°05'0 0.0
2017-Dec-21 06:58N 26°55' W 080°05'0 0.0
2017-Dec-21 06:28N 26°55' W 080°05'0 0.0
2017-Dec-21 05:58N 26°55' W 080°05'0 0.0
2017-Dec-21 05:28N 26°55' W 080°05'0 0.0
2017-Dec-21 04:58N 26°55' W 080°05'0 0.0
2017-Dec-21 04:28N 26°55' W 080°05'0 0.0
2017-Dec-21 04:00N 26°55' W 080°05'0 0.0
2017-Dec-21 03:28N 26°55' W 080°05'0 0.0
2017-Dec-21 02:58N 26°55' W 080°05'0 0.9
2017-Dec-21 02:30N 26°55' W 080°05'1 2.2
2017-Dec-21 01:58N 26°56' W 080°05'0 0.0
2017-Dec-21 01:28N 26°56' W 080°05'0 0.0
2017-Dec-21 00:58N 26°56' W 080°05'0 0.0
2017-Dec-21 00:28N 26°56' W 080°05'0 0.1
2017-Dec-21 00:00N 26°56' W 080°05'0 0.0
2017-Dec-20 23:30N 26°56' W 080°05'0 0.0
2017-Dec-20 22:59N 26°56' W 080°05'1 1.5
2017-Dec-20 22:30N 26°57' W 080°05'  

Dump ship's entire track history